Terminal Aerodrome Forecast
Issued by NWS Upton, NY

Home | Current Version | Previous Version | Text Only | Print | Product List | Glossary On
Versions: 1 2 3 4 5 6 7 8 9 10 11 12 13 14 15 16 17 18 19 20 21 22 23 24 25 26 27 28 29 30 31 32 33 34 35 36 37 38 39 40 41 42
301
FTUS41 KOKX 281502 AAC
TAFJFK
TAF AMD
KJFK 281502Z 2815/2918 20007KT 6SM HZ SCT250
     FM281800 18012KT P6SM SCT250
     FM290100 VRB05KT P6SM SCT250
     FM290700 17006KT P6SM OVC150 PROB30 2908/2913 5SM -SHRA BR
      BKN040
     FM291400 25013G21KT P6SM BKN100=

USA.gov is the U.S. government's official web portal to all federal, state and local government web resources and services.